sensor_id;sensor_type;location;lat;lon;timestamp;P1;durP1;ratioP1;P2;durP2;ratioP2
47866;SDS011;33628;50.806;11.586;2023-03-01T00:02:03;43.20;;;20.38;;
47866;SDS011;33628;50.806;11.586;2023-03-01T00:04:30;38.85;;;20.23;;
47866;SDS011;33628;50.806;11.586;2023-03-01T00:06:57;42.40;;;20.92;;
47866;SDS011;33628;50.806;11.586;2023-03-01T00:09:23;42.45;;;21.20;;
47866;SDS011;33628;50.806;11.586;2023-03-01T00:11:52;43.72;;;21.15;;
47866;SDS011;33628;50.806;11.586;2023-03-01T00:14:18;36.90;;;19.45;;
47866;SDS011;33628;50.806;11.586;2023-03-01T00:16:45;40.63;;;21.13;;
47866;SDS011;33628;50.806;11.586;2023-03-01T00:19:13;43.45;;;19.88;;
47866;SDS011;33628;50.806;11.586;2023-03-01T00:21:40;39.40;;;19.70;;
47866;SDS011;33628;50.806;11.586;2023-03-01T00:24:07;42.38;;;20.17;;
47866;SDS011;33628;50.806;11.586;2023-03-01T00:26:34;45.60;;;20.55;;
47866;SDS011;33628;50.806;11.586;2023-03-01T00:29:02;44.17;;;20.23;;
47866;SDS011;33628;50.806;11.586;2023-03-01T00:31:30;42.95;;;20.85;;
47866;SDS011;33628;50.806;11.586;2023-03-01T00:33:59;34.55;;;16.60;;
47866;SDS011;33628;50.806;11.586;2023-03-01T00:36:27;41.10;;;20.33;;
47866;SDS011;33628;50.806;11.586;2023-03-01T00:38:55;39.95;;;20.05;;
47866;SDS011;33628;50.806;11.586;2023-03-01T00:41:22;40.17;;;18.77;;
47866;SDS011;33628;50.806;11.586;2023-03-01T00:43:49;43.60;;;19.30;;
47866;SDS011;33628;50.806;11.586;2023-03-01T00:46:19;43.45;;;19.45;;
47866;SDS011;33628;50.806;11.586;2023-03-01T00:48:47;35.40;;;18.83;;
47866;SDS011;33628;50.806;11.586;2023-03-01T00:51:15;36.80;;;19.20;;
47866;SDS011;33628;50.806;11.586;2023-03-01T00:53:44;42.28;;;19.52;;
47866;SDS011;33628;50.806;11.586;2023-03-01T00:56:12;38.28;;;19.85;;
47866;SDS011;33628;50.806;11.586;2023-03-01T00:58:39;39.70;;;19.17;;
47866;SDS011;33628;50.806;11.586;2023-03-01T01:01:07;41.83;;;20.13;;
47866;SDS011;33628;50.806;11.586;2023-03-01T01:03:47;28.83;;;14.60;;
47866;SDS011;33628;50.806;11.586;2023-03-01T01:06:18;36.90;;;17.95;;
47866;SDS011;33628;50.806;11.586;2023-03-01T01:08:46;43.90;;;20.98;;
47866;SDS011;33628;50.806;11.586;2023-03-01T01:11:13;40.40;;;19.80;;
47866;SDS011;33628;50.806;11.586;2023-03-01T01:13:40;42.03;;;20.52;;
47866;SDS011;33628;50.806;11.586;2023-03-01T01:16:07;45.95;;;21.95;;
47866;SDS011;33628;50.806;11.586;2023-03-01T01:18:34;42.15;;;20.70;;
47866;SDS011;33628;50.806;11.586;2023-03-01T01:21:06;49.80;;;21.08;;
47866;SDS011;33628;50.806;11.586;2023-03-01T01:23:34;43.50;;;22.08;;
47866;SDS011;33628;50.806;11.586;2023-03-01T01:26:04;41.90;;;20.80;;
47866;SDS011;33628;50.806;11.586;2023-03-01T01:28:31;46.28;;;21.55;;
47866;SDS011;33628;50.806;11.586;2023-03-01T01:30:58;38.38;;;19.65;;
47866;SDS011;33628;50.806;11.586;2023-03-01T01:33:25;46.45;;;20.85;;
47866;SDS011;33628;50.806;11.586;2023-03-01T01:35:52;44.30;;;22.02;;
47866;SDS011;33628;50.806;11.586;2023-03-01T01:38:20;42.55;;;19.95;;
47866;SDS011;33628;50.806;11.586;2023-03-01T01:40:48;42.25;;;20.15;;
47866;SDS011;33628;50.806;11.586;2023-03-01T01:43:17;42.28;;;20.20;;
47866;SDS011;33628;50.806;11.586;2023-03-01T01:45:46;39.75;;;19.75;;
47866;SDS011;33628;50.806;11.586;2023-03-01T01:48:13;39.40;;;20.27;;
47866;SDS011;33628;50.806;11.586;2023-03-01T01:50:43;40.20;;;20.42;;
47866;SDS011;33628;50.806;11.586;2023-03-01T01:53:12;48.30;;;21.35;;
47866;SDS011;33628;50.806;11.586;2023-03-01T01:55:43;46.60;;;21.52;;
47866;SDS011;33628;50.806;11.586;2023-03-01T01:58:12;43.17;;;21.38;;
47866;SDS011;33628;50.806;11.586;2023-03-01T02:00:41;43.97;;;20.63;;
47866;SDS011;33628;50.806;11.586;2023-03-01T02:03:08;41.95;;;20.95;;
47866;SDS011;33628;50.806;11.586;2023-03-01T02:05:38;40.65;;;20.42;;
47866;SDS011;33628;50.806;11.586;2023-03-01T02:08:10;42.17;;;21.67;;
47866;SDS011;33628;50.806;11.586;2023-03-01T02:10:37;41.15;;;19.77;;
47866;SDS011;33628;50.806;11.586;2023-03-01T02:13:06;43.25;;;21.50;;
47866;SDS011;33628;50.806;11.586;2023-03-01T02:15:33;44.30;;;20.92;;
47866;SDS011;33628;50.806;11.586;2023-03-01T02:18:01;45.10;;;21.10;;
47866;SDS011;33628;50.806;11.586;2023-03-01T02:20:31;41.03;;;20.05;;
47866;SDS011;33628;50.806;11.586;2023-03-01T02:23:00;42.78;;;19.05;;
47866;SDS011;33628;50.806;11.586;2023-03-01T02:25:30;44.15;;;20.00;;
47866;SDS011;33628;50.806;11.586;2023-03-01T02:28:04;45.45;;;20.73;;
47866;SDS011;33628;50.806;11.586;2023-03-01T02:30:36;43.17;;;21.48;;
47866;SDS011;33628;50.806;11.586;2023-03-01T02:33:03;42.25;;;21.58;;
47866;SDS011;33628;50.806;11.586;2023-03-01T02:35:32;40.50;;;19.45;;
47866;SDS011;33628;50.806;11.586;2023-03-01T02:38:01;44.78;;;20.17;;
47866;SDS011;33628;50.806;11.586;2023-03-01T02:40:29;43.20;;;20.40;;
47866;SDS011;33628;50.806;11.586;2023-03-01T02:42:57;44.70;;;20.42;;
47866;SDS011;33628;50.806;11.586;2023-03-01T02:45:25;47.20;;;21.75;;
47866;SDS011;33628;50.806;11.586;2023-03-01T02:47:55;47.17;;;20.55;;
47866;SDS011;33628;50.806;11.586;2023-03-01T02:50:25;39.30;;;18.85;;
47866;SDS011;33628;50.806;11.586;2023-03-01T02:53:06;43.40;;;20.38;;
47866;SDS011;33628;50.806;11.586;2023-03-01T02:55:35;40.47;;;19.63;;
47866;SDS011;33628;50.806;11.586;2023-03-01T02:58:02;37.00;;;18.70;;
47866;SDS011;33628;50.806;11.586;2023-03-01T03:00:31;37.10;;;17.75;;
47866;SDS011;33628;50.806;11.586;2023-03-01T03:03:01;39.33;;;17.52;;
47866;SDS011;33628;50.806;11.586;2023-03-01T03:05:28;36.60;;;18.02;;
47866;SDS011;33628;50.806;11.586;2023-03-01T03:07:58;35.35;;;18.00;;
47866;SDS011;33628;50.806;11.586;2023-03-01T03:10:27;35.97;;;18.17;;
47866;SDS011;33628;50.806;11.586;2023-03-01T03:12:55;35.40;;;17.83;;
47866;SDS011;33628;50.806;11.586;2023-03-01T03:15:23;36.90;;;17.42;;
47866;SDS011;33628;50.806;11.586;2023-03-01T03:17:50;40.83;;;18.80;;
47866;SDS011;33628;50.806;11.586;2023-03-01T03:20:22;39.60;;;18.85;;
47866;SDS011;33628;50.806;11.586;2023-03-01T03:22:51;37.40;;;17.80;;
47866;SDS011;33628;50.806;11.586;2023-03-01T03:25:19;40.20;;;18.98;;
47866;SDS011;33628;50.806;11.586;2023-03-01T03:27:47;35.08;;;18.17;;
47866;SDS011;33628;50.806;11.586;2023-03-01T03:30:15;38.80;;;18.40;;
47866;SDS011;33628;50.806;11.586;2023-03-01T03:32:43;37.25;;;17.95;;
47866;SDS011;33628;50.806;11.586;2023-03-01T03:35:23;33.75;;;17.73;;
47866;SDS011;33628;50.806;11.586;2023-03-01T03:37:50;36.47;;;18.38;;
47866;SDS011;33628;50.806;11.586;2023-03-01T03:40:30;35.58;;;17.60;;
47866;SDS011;33628;50.806;11.586;2023-03-01T03:42:57;39.17;;;18.58;;
47866;SDS011;33628;50.806;11.586;2023-03-01T03:45:24;41.47;;;19.40;;
47866;SDS011;33628;50.806;11.586;2023-03-01T03:47:50;35.65;;;18.80;;
47866;SDS011;33628;50.806;11.586;2023-03-01T03:50:17;38.80;;;17.85;;
47866;SDS011;33628;50.806;11.586;2023-03-01T03:52:45;42.35;;;20.77;;
47866;SDS011;33628;50.806;11.586;2023-03-01T03:55:12;45.70;;;21.80;;
47866;SDS011;33628;50.806;11.586;2023-03-01T03:57:39;42.50;;;18.38;;
47866;SDS011;33628;50.806;11.586;2023-03-01T04:00:08;47.40;;;20.80;;
47866;SDS011;33628;50.806;11.586;2023-03-01T04:02:39;44.28;;;19.40;;
47866;SDS011;33628;50.806;11.586;2023-03-01T04:05:06;39.45;;;18.65;;
47866;SDS011;33628;50.806;11.586;2023-03-01T04:07:34;43.53;;;18.95;;
47866;SDS011;33628;50.806;11.586;2023-03-01T04:10:02;37.92;;;17.67;;
47866;SDS011;33628;50.806;11.586;2023-03-01T04:12:28;43.67;;;18.88;;
47866;SDS011;33628;50.806;11.586;2023-03-01T04:14:55;42.28;;;19.10;;
47866;SDS011;33628;50.806;11.586;2023-03-01T04:17:22;45.92;;;20.27;;
47866;SDS011;33628;50.806;11.586;2023-03-01T04:19:48;39.72;;;19.30;;
47866;SDS011;33628;50.806;11.586;2023-03-01T04:22:15;36.72;;;19.00;;
47866;SDS011;33628;50.806;11.586;2023-03-01T04:24:44;43.80;;;19.15;;
47866;SDS011;33628;50.806;11.586;2023-03-01T04:27:12;41.13;;;18.10;;
47866;SDS011;33628;50.806;11.586;2023-03-01T04:29:38;37.80;;;18.88;;
47866;SDS011;33628;50.806;11.586;2023-03-01T04:32:05;43.47;;;20.15;;
47866;SDS011;33628;50.806;11.586;2023-03-01T04:34:32;51.05;;;25.80;;
47866;SDS011;33628;50.806;11.586;2023-03-01T04:36:58;64.35;;;30.95;;
47866;SDS011;33628;50.806;11.586;2023-03-01T04:39:25;58.10;;;27.55;;
47866;SDS011;33628;50.806;11.586;2023-03-01T04:41:52;51.97;;;24.23;;
47866;SDS011;33628;50.806;11.586;2023-03-01T04:44:20;51.60;;;23.52;;
47866;SDS011;33628;50.806;11.586;2023-03-01T04:46:48;53.35;;;26.05;;
47866;SDS011;33628;50.806;11.586;2023-03-01T04:49:15;46.72;;;22.98;;
47866;SDS011;33628;50.806;11.586;2023-03-01T04:51:42;53.55;;;23.67;;
47866;SDS011;33628;50.806;11.586;2023-03-01T04:54:08;56.38;;;27.65;;
47866;SDS011;33628;50.806;11.586;2023-03-01T04:56:36;60.15;;;29.48;;
47866;SDS011;33628;50.806;11.586;2023-03-01T04:59:02;61.33;;;27.38;;
47866;SDS011;33628;50.806;11.586;2023-03-01T05:01:32;54.72;;;27.15;;
47866;SDS011;33628;50.806;11.586;2023-03-01T05:04:01;49.97;;;25.08;;
47866;SDS011;33628;50.806;11.586;2023-03-01T05:06:28;48.63;;;21.90;;
47866;SDS011;33628;50.806;11.586;2023-03-01T05:08:55;39.85;;;20.38;;
47866;SDS011;33628;50.806;11.586;2023-03-01T05:11:22;41.38;;;20.35;;
47866;SDS011;33628;50.806;11.586;2023-03-01T05:13:49;46.53;;;21.27;;
47866;SDS011;33628;50.806;11.586;2023-03-01T05:16:20;43.03;;;21.15;;
47866;SDS011;33628;50.806;11.586;2023-03-01T05:18:48;42.85;;;20.10;;
47866;SDS011;33628;50.806;11.586;2023-03-01T05:21:16;41.47;;;20.65;;
47866;SDS011;33628;50.806;11.586;2023-03-01T05:23:43;46.17;;;19.58;;
47866;SDS011;33628;50.806;11.586;2023-03-01T05:26:10;42.88;;;22.48;;
47866;SDS011;33628;50.806;11.586;2023-03-01T05:28:38;48.28;;;21.80;;
47866;SDS011;33628;50.806;11.586;2023-03-01T05:31:05;46.90;;;20.40;;
47866;SDS011;33628;50.806;11.586;2023-03-01T05:33:38;53.92;;;23.80;;
47866;SDS011;33628;50.806;11.586;2023-03-01T05:36:07;45.97;;;21.02;;
47866;SDS011;33628;50.806;11.586;2023-03-01T05:38:35;53.00;;;21.90;;
47866;SDS011;33628;50.806;11.586;2023-03-01T05:41:02;53.80;;;21.50;;
47866;SDS011;33628;50.806;11.586;2023-03-01T05:43:30;45.65;;;21.05;;
47866;SDS011;33628;50.806;11.586;2023-03-01T05:45:59;45.80;;;21.55;;
47866;SDS011;33628;50.806;11.586;2023-03-01T05:48:26;48.05;;;22.27;;
47866;SDS011;33628;50.806;11.586;2023-03-01T05:50:52;45.88;;;22.05;;
47866;SDS011;33628;50.806;11.586;2023-03-01T05:53:20;54.88;;;24.73;;
47866;SDS011;33628;50.806;11.586;2023-03-01T05:55:47;47.95;;;22.95;;
47866;SDS011;33628;50.806;11.586;2023-03-01T05:58:16;48.72;;;22.98;;
47866;SDS011;33628;50.806;11.586;2023-03-01T06:00:44;53.42;;;23.00;;
47866;SDS011;33628;50.806;11.586;2023-03-01T06:03:12;54.08;;;24.15;;
47866;SDS011;33628;50.806;11.586;2023-03-01T06:05:40;47.80;;;22.80;;
47866;SDS011;33628;50.806;11.586;2023-03-01T06:08:07;49.97;;;22.38;;
47866;SDS011;33628;50.806;11.586;2023-03-01T06:10:36;49.55;;;21.67;;
47866;SDS011;33628;50.806;11.586;2023-03-01T06:13:03;51.63;;;22.60;;
47866;SDS011;33628;50.806;11.586;2023-03-01T06:15:30;46.63;;;23.52;;
47866;SDS011;33628;50.806;11.586;2023-03-01T06:17:56;46.83;;;21.35;;
47866;SDS011;33628;50.806;11.586;2023-03-01T06:20:24;52.20;;;22.45;;
47866;SDS011;33628;50.806;11.586;2023-03-01T06:22:51;45.38;;;21.40;;
47866;SDS011;33628;50.806;11.586;2023-03-01T06:25:19;51.05;;;23.60;;
47866;SDS011;33628;50.806;11.586;2023-03-01T06:27:49;45.13;;;22.88;;
47866;SDS011;33628;50.806;11.586;2023-03-01T06:30:16;54.40;;;24.23;;
47866;SDS011;33628;50.806;11.586;2023-03-01T06:32:44;61.13;;;26.42;;
47866;SDS011;33628;50.806;11.586;2023-03-01T06:35:11;50.47;;;23.60;;
47866;SDS011;33628;50.806;11.586;2023-03-01T06:37:39;58.67;;;24.15;;
47866;SDS011;33628;50.806;11.586;2023-03-01T06:40:07;47.50;;;22.20;;
47866;SDS011;33628;50.806;11.586;2023-03-01T06:42:37;53.95;;;22.80;;
47866;SDS011;33628;50.806;11.586;2023-03-01T06:45:06;51.63;;;23.58;;
47866;SDS011;33628;50.806;11.586;2023-03-01T06:47:34;56.35;;;22.50;;
47866;SDS011;33628;50.806;11.586;2023-03-01T06:50:01;50.05;;;22.08;;
47866;SDS011;33628;50.806;11.586;2023-03-01T06:52:28;50.05;;;21.00;;
47866;SDS011;33628;50.806;11.586;2023-03-01T06:54:55;37.60;;;19.80;;
47866;SDS011;33628;50.806;11.586;2023-03-01T06:57:22;35.38;;;19.92;;
47866;SDS011;33628;50.806;11.586;2023-03-01T06:59:48;41.22;;;20.23;;
47866;SDS011;33628;50.806;11.586;2023-03-01T07:02:16;40.60;;;20.70;;
47866;SDS011;33628;50.806;11.586;2023-03-01T07:04:43;40.60;;;21.00;;
47866;SDS011;33628;50.806;11.586;2023-03-01T07:07:10;42.70;;;19.75;;
47866;SDS011;33628;50.806;11.586;2023-03-01T07:09:37;46.65;;;21.42;;
47866;SDS011;33628;50.806;11.586;2023-03-01T07:12:04;43.50;;;22.35;;
47866;SDS011;33628;50.806;11.586;2023-03-01T07:14:31;51.58;;;23.63;;
47866;SDS011;33628;50.806;11.586;2023-03-01T07:16:58;48.40;;;24.25;;
47866;SDS011;33628;50.806;11.586;2023-03-01T07:19:26;61.15;;;29.95;;
47866;SDS011;33628;50.806;11.586;2023-03-01T07:21:53;60.75;;;30.38;;
47866;SDS011;33628;50.806;11.586;2023-03-01T07:24:21;68.10;;;32.38;;
47866;SDS011;33628;50.806;11.586;2023-03-01T07:26:50;60.60;;;30.58;;
47866;SDS011;33628;50.806;11.586;2023-03-01T07:29:17;52.90;;;26.80;;
47866;SDS011;33628;50.806;11.586;2023-03-01T07:31:44;53.38;;;27.10;;
47866;SDS011;33628;50.806;11.586;2023-03-01T07:34:11;54.72;;;27.05;;
47866;SDS011;33628;50.806;11.586;2023-03-01T07:36:39;56.53;;;26.88;;
47866;SDS011;33628;50.806;11.586;2023-03-01T07:39:09;51.35;;;26.27;;
47866;SDS011;33628;50.806;11.586;2023-03-01T07:41:36;53.65;;;26.05;;
47866;SDS011;33628;50.806;11.586;2023-03-01T07:44:03;60.45;;;28.02;;
47866;SDS011;33628;50.806;11.586;2023-03-01T07:46:31;57.85;;;27.30;;
47866;SDS011;33628;50.806;11.586;2023-03-01T07:48:58;61.53;;;30.80;;
47866;SDS011;33628;50.806;11.586;2023-03-01T07:51:24;52.40;;;26.23;;
47866;SDS011;33628;50.806;11.586;2023-03-01T07:53:52;50.67;;;26.00;;
47866;SDS011;33628;50.806;11.586;2023-03-01T07:56:19;55.58;;;27.23;;
47866;SDS011;33628;50.806;11.586;2023-03-01T07:58:47;53.45;;;26.55;;
47866;SDS011;33628;50.806;11.586;2023-03-01T08:01:14;48.85;;;24.75;;
47866;SDS011;33628;50.806;11.586;2023-03-01T08:03:42;45.47;;;24.33;;
47866;SDS011;33628;50.806;11.586;2023-03-01T08:06:12;47.58;;;25.40;;
47866;SDS011;33628;50.806;11.586;2023-03-01T08:08:40;46.20;;;24.95;;
47866;SDS011;33628;50.806;11.586;2023-03-01T08:11:10;48.42;;;23.50;;
47866;SDS011;33628;50.806;11.586;2023-03-01T08:13:37;49.83;;;21.80;;
47866;SDS011;33628;50.806;11.586;2023-03-01T08:16:05;51.67;;;25.35;;
47866;SDS011;33628;50.806;11.586;2023-03-01T08:18:33;46.95;;;24.80;;
47866;SDS011;33628;50.806;11.586;2023-03-01T08:21:03;49.40;;;23.83;;
47866;SDS011;33628;50.806;11.586;2023-03-01T08:23:30;48.42;;;24.58;;
47866;SDS011;33628;50.806;11.586;2023-03-01T08:26:02;48.40;;;24.30;;
47866;SDS011;33628;50.806;11.586;2023-03-01T08:28:31;46.60;;;23.45;;
47866;SDS011;33628;50.806;11.586;2023-03-01T08:30:58;44.85;;;23.58;;
47866;SDS011;33628;50.806;11.586;2023-03-01T08:33:25;45.80;;;24.17;;
47866;SDS011;33628;50.806;11.586;2023-03-01T08:35:51;42.95;;;23.55;;
47866;SDS011;33628;50.806;11.586;2023-03-01T08:38:18;44.08;;;24.25;;
47866;SDS011;33628;50.806;11.586;2023-03-01T08:40:45;47.95;;;24.00;;
47866;SDS011;33628;50.806;11.586;2023-03-01T08:43:11;41.50;;;22.45;;
47866;SDS011;33628;50.806;11.586;2023-03-01T08:45:39;51.03;;;24.45;;
47866;SDS011;33628;50.806;11.586;2023-03-01T08:48:06;44.35;;;22.88;;
47866;SDS011;33628;50.806;11.586;2023-03-01T08:50:32;53.83;;;27.15;;
47866;SDS011;33628;50.806;11.586;2023-03-01T08:52:59;47.28;;;24.80;;
47866;SDS011;33628;50.806;11.586;2023-03-01T08:55:25;39.60;;;22.50;;
47866;SDS011;33628;50.806;11.586;2023-03-01T08:57:52;38.65;;;21.75;;
47866;SDS011;33628;50.806;11.586;2023-03-01T09:00:19;37.50;;;22.55;;
47866;SDS011;33628;50.806;11.586;2023-03-01T09:02:47;35.10;;;22.67;;
47866;SDS011;33628;50.806;11.586;2023-03-01T09:05:14;34.13;;;22.85;;
47866;SDS011;33628;50.806;11.586;2023-03-01T09:07:41;35.17;;;21.48;;
47866;SDS011;33628;50.806;11.586;2023-03-01T09:10:08;30.45;;;20.80;;
47866;SDS011;33628;50.806;11.586;2023-03-01T09:12:36;33.45;;;21.58;;
47866;SDS011;33628;50.806;11.586;2023-03-01T09:15:02;36.13;;;23.98;;
47866;SDS011;33628;50.806;11.586;2023-03-01T09:17:30;28.77;;;19.92;;
47866;SDS011;33628;50.806;11.586;2023-03-01T09:19:57;27.48;;;19.00;;
47866;SDS011;33628;50.806;11.586;2023-03-01T09:22:25;29.58;;;19.98;;
47866;SDS011;33628;50.806;11.586;2023-03-01T09:24:52;30.02;;;20.42;;
47866;SDS011;33628;50.806;11.586;2023-03-01T09:27:18;31.75;;;20.65;;
47866;SDS011;33628;50.806;11.586;2023-03-01T09:29:45;34.70;;;20.38;;
47866;SDS011;33628;50.806;11.586;2023-03-01T09:32:12;29.83;;;20.10;;
47866;SDS011;33628;50.806;11.586;2023-03-01T09:34:38;26.85;;;20.15;;
47866;SDS011;33628;50.806;11.586;2023-03-01T09:37:25;27.40;;;19.73;;
47866;SDS011;33628;50.806;11.586;2023-03-01T09:39:52;34.10;;;19.70;;
47866;SDS011;33628;50.806;11.586;2023-03-01T09:42:19;24.77;;;19.27;;
47866;SDS011;33628;50.806;11.586;2023-03-01T09:44:47;27.33;;;19.40;;
47866;SDS011;33628;50.806;11.586;2023-03-01T09:47:17;24.67;;;17.92;;
47866;SDS011;33628;50.806;11.586;2023-03-01T09:49:46;24.67;;;18.80;;
47866;SDS011;33628;50.806;11.586;2023-03-01T09:52:21;24.23;;;19.33;;
47866;SDS011;33628;50.806;11.586;2023-03-01T09:54:54;25.17;;;18.80;;
47866;SDS011;33628;50.806;11.586;2023-03-01T09:57:26;33.03;;;19.08;;
47866;SDS011;33628;50.806;11.586;2023-03-01T10:00:00;25.70;;;17.92;;
47866;SDS011;33628;50.806;11.586;2023-03-01T10:02:34;30.65;;;21.90;;
47866;SDS011;33628;50.806;11.586;2023-03-01T10:05:10;35.17;;;19.92;;
47866;SDS011;33628;50.806;11.586;2023-03-01T10:07:56;24.73;;;17.20;;
47866;SDS011;33628;50.806;11.586;2023-03-01T10:12:59;22.33;;;16.15;;
47866;SDS011;33628;50.806;11.586;2023-03-01T10:15:38;21.20;;;16.40;;
47866;SDS011;33628;50.806;11.586;2023-03-01T10:18:09;21.48;;;15.57;;
47866;SDS011;33628;50.806;11.586;2023-03-01T10:20:42;20.02;;;14.40;;
47866;SDS011;33628;50.806;11.586;2023-03-01T10:23:12;20.15;;;14.60;;
47866;SDS011;33628;50.806;11.586;2023-03-01T10:25:43;21.58;;;16.70;;
47866;SDS011;33628;50.806;11.586;2023-03-01T10:28:16;20.10;;;14.88;;
47866;SDS011;33628;50.806;11.586;2023-03-01T10:30:43;23.02;;;14.85;;
47866;SDS011;33628;50.806;11.586;2023-03-01T10:33:14;19.02;;;14.30;;
47866;SDS011;33628;50.806;11.586;2023-03-01T10:35:43;18.88;;;13.60;;
47866;SDS011;33628;50.806;11.586;2023-03-01T10:38:10;18.90;;;13.95;;
47866;SDS011;33628;50.806;11.586;2023-03-01T10:40:49;21.65;;;14.60;;
47866;SDS011;33628;50.806;11.586;2023-03-01T10:43:18;18.17;;;13.82;;
47866;SDS011;33628;50.806;11.586;2023-03-01T10:45:45;19.77;;;14.70;;
47866;SDS011;33628;50.806;11.586;2023-03-01T10:48:12;18.23;;;13.90;;
47866;SDS011;33628;50.806;11.586;2023-03-01T10:50:40;20.60;;;14.43;;
47866;SDS011;33628;50.806;11.586;2023-03-01T10:53:19;20.27;;;14.90;;
47866;SDS011;33628;50.806;11.586;2023-03-01T10:55:56;20.58;;;15.02;;
47866;SDS011;33628;50.806;11.586;2023-03-01T10:58:31;19.67;;;14.65;;
47866;SDS011;33628;50.806;11.586;2023-03-01T11:00:58;22.10;;;13.77;;
47866;SDS011;33628;50.806;11.586;2023-03-01T11:03:27;21.40;;;15.82;;
47866;SDS011;33628;50.806;11.586;2023-03-01T11:06:05;20.05;;;13.90;;
47866;SDS011;33628;50.806;11.586;2023-03-01T11:08:48;17.17;;;13.82;;
47866;SDS011;33628;50.806;11.586;2023-03-01T11:11:22;20.30;;;14.60;;
47866;SDS011;33628;50.806;11.586;2023-03-01T11:13:52;20.48;;;14.68;;
47866;SDS011;33628;50.806;11.586;2023-03-01T11:19:19;21.95;;;16.15;;
47866;SDS011;33628;50.806;11.586;2023-03-01T11:21:50;22.95;;;15.35;;
47866;SDS011;33628;50.806;11.586;2023-03-01T11:24:22;18.42;;;14.70;;
47866;SDS011;33628;50.806;11.586;2023-03-01T11:26:53;21.42;;;15.18;;
47866;SDS011;33628;50.806;11.586;2023-03-01T11:29:25;20.63;;;15.40;;
47866;SDS011;33628;50.806;11.586;2023-03-01T11:31:54;20.30;;;15.30;;
47866;SDS011;33628;50.806;11.586;2023-03-01T11:34:27;20.35;;;15.27;;
47866;SDS011;33628;50.806;11.586;2023-03-01T11:37:01;20.73;;;15.63;;
47866;SDS011;33628;50.806;11.586;2023-03-01T11:39:32;20.73;;;14.40;;
47866;SDS011;33628;50.806;11.586;2023-03-01T11:42:04;21.77;;;15.02;;
47866;SDS011;33628;50.806;11.586;2023-03-01T11:44:33;21.42;;;15.50;;
47866;SDS011;33628;50.806;11.586;2023-03-01T11:47:14;19.67;;;14.45;;
47866;SDS011;33628;50.806;11.586;2023-03-01T11:49:52;17.85;;;14.43;;
47866;SDS011;33628;50.806;11.586;2023-03-01T11:52:33;20.67;;;15.52;;
47866;SDS011;33628;50.806;11.586;2023-03-01T11:55:12;20.10;;;14.85;;
47866;SDS011;33628;50.806;11.586;2023-03-01T11:57:55;23.05;;;16.25;;
47866;SDS011;33628;50.806;11.586;2023-03-01T12:00:45;22.00;;;15.40;;
47866;SDS011;33628;50.806;11.586;2023-03-01T12:03:35;20.98;;;15.32;;
47866;SDS011;33628;50.806;11.586;2023-03-01T12:09:12;19.05;;;14.57;;
47866;SDS011;33628;50.806;11.586;2023-03-01T12:11:49;23.90;;;15.73;;
47866;SDS011;33628;50.806;11.586;2023-03-01T12:14:45;22.95;;;16.48;;
47866;SDS011;33628;50.806;11.586;2023-03-01T12:17:34;23.15;;;15.77;;
47866;SDS011;33628;50.806;11.586;2023-03-01T12:20:17;23.25;;;16.25;;
47866;SDS011;33628;50.806;11.586;2023-03-01T12:22:56;23.80;;;15.55;;
47866;SDS011;33628;50.806;11.586;2023-03-01T12:28:18;25.67;;;15.05;;
47866;SDS011;33628;50.806;11.586;2023-03-01T12:34:13;25.33;;;14.77;;
47866;SDS011;33628;50.806;11.586;2023-03-01T12:36:52;25.80;;;14.85;;
47866;SDS011;33628;50.806;11.586;2023-03-01T12:39:41;21.15;;;13.45;;
47866;SDS011;33628;50.806;11.586;2023-03-01T12:42:13;23.35;;;13.77;;
47866;SDS011;33628;50.806;11.586;2023-03-01T12:44:49;29.35;;;15.85;;
47866;SDS011;33628;50.806;11.586;2023-03-01T12:47:26;28.55;;;14.65;;
47866;SDS011;33628;50.806;11.586;2023-03-01T12:50:11;26.38;;;14.88;;
47866;SDS011;33628;50.806;11.586;2023-03-01T12:52:44;23.33;;;14.77;;
47866;SDS011;33628;50.806;11.586;2023-03-01T12:55:18;27.75;;;15.45;;
47866;SDS011;33628;50.806;11.586;2023-03-01T12:57:51;22.92;;;14.52;;
47866;SDS011;33628;50.806;11.586;2023-03-01T13:00:26;22.25;;;15.18;;
47866;SDS011;33628;50.806;11.586;2023-03-01T13:02:58;26.45;;;15.40;;
47866;SDS011;33628;50.806;11.586;2023-03-01T13:05:32;25.00;;;16.25;;
47866;SDS011;33628;50.806;11.586;2023-03-01T13:08:05;25.75;;;14.80;;
47866;SDS011;33628;50.806;11.586;2023-03-01T13:10:39;27.98;;;15.48;;
47866;SDS011;33628;50.806;11.586;2023-03-01T13:13:12;25.63;;;14.63;;
47866;SDS011;33628;50.806;11.586;2023-03-01T13:15:42;25.77;;;15.07;;
47866;SDS011;33628;50.806;11.586;2023-03-01T13:18:28;23.13;;;14.57;;
47866;SDS011;33628;50.806;11.586;2023-03-01T13:20:56;22.83;;;14.90;;
47866;SDS011;33628;50.806;11.586;2023-03-01T13:23:25;22.70;;;14.63;;
47866;SDS011;33628;50.806;11.586;2023-03-01T13:26:00;23.38;;;15.13;;
47866;SDS011;33628;50.806;11.586;2023-03-01T13:34:46;27.63;;;14.43;;
47866;SDS011;33628;50.806;11.586;2023-03-01T13:37:29;26.52;;;15.32;;
47866;SDS011;33628;50.806;11.586;2023-03-01T13:39:58;28.60;;;15.35;;
47866;SDS011;33628;50.806;11.586;2023-03-01T13:42:31;25.70;;;15.05;;
47866;SDS011;33628;50.806;11.586;2023-03-01T13:45:03;26.10;;;14.27;;
47866;SDS011;33628;50.806;11.586;2023-03-01T13:47:38;22.48;;;14.30;;
47866;SDS011;33628;50.806;11.586;2023-03-01T13:50:15;22.85;;;13.80;;
47866;SDS011;33628;50.806;11.586;2023-03-01T13:52:45;29.05;;;15.13;;
47866;SDS011;33628;50.806;11.586;2023-03-01T13:55:16;28.40;;;15.02;;
47866;SDS011;33628;50.806;11.586;2023-03-01T13:57:46;22.67;;;11.57;;
47866;SDS011;33628;50.806;11.586;2023-03-01T14:03:14;24.63;;;13.25;;
47866;SDS011;33628;50.806;11.586;2023-03-01T14:05:44;24.55;;;14.70;;
47866;SDS011;33628;50.806;11.586;2023-03-01T14:08:25;22.38;;;13.50;;
47866;SDS011;33628;50.806;11.586;2023-03-01T14:11:06;25.90;;;14.88;;
47866;SDS011;33628;50.806;11.586;2023-03-01T14:13:50;26.73;;;13.98;;
47866;SDS011;33628;50.806;11.586;2023-03-01T14:16:25;25.35;;;14.82;;
47866;SDS011;33628;50.806;11.586;2023-03-01T14:21:30;32.00;;;14.50;;
47866;SDS011;33628;50.806;11.586;2023-03-01T14:23:57;28.23;;;14.77;;
47866;SDS011;33628;50.806;11.586;2023-03-01T14:26:24;24.35;;;14.30;;
47866;SDS011;33628;50.806;11.586;2023-03-01T14:28:51;29.10;;;13.32;;
47866;SDS011;33628;50.806;11.586;2023-03-01T14:31:31;24.85;;;12.70;;
47866;SDS011;33628;50.806;11.586;2023-03-01T14:34:01;25.13;;;12.23;;
47866;SDS011;33628;50.806;11.586;2023-03-01T14:36:32;21.73;;;12.45;;
47866;SDS011;33628;50.806;11.586;2023-03-01T14:38:59;21.83;;;11.90;;
47866;SDS011;33628;50.806;11.586;2023-03-01T14:41:33;27.40;;;13.45;;
47866;SDS011;33628;50.806;11.586;2023-03-01T14:44:02;19.40;;;12.00;;
47866;SDS011;33628;50.806;11.586;2023-03-01T14:46:31;18.75;;;10.68;;
47866;SDS011;33628;50.806;11.586;2023-03-01T14:49:01;21.38;;;12.63;;
47866;SDS011;33628;50.806;11.586;2023-03-01T14:51:31;23.05;;;11.20;;